sensor_id;sensor_type;location;lat;lon;timestamp;P1;P4;P2;P0;N10;N4;N25;N1;N05;TS
82310;SPS30;72015;51.330;12.316;2023-08-06T00:00:59;6.36;;6.36;;;;;;;
82310;SPS30;72015;51.330;12.316;2023-08-06T00:04:59;6.36;;6.36;;;;;;;
82310;SPS30;72015;51.330;12.316;2023-08-06T00:08:59;6.36;;6.36;;;;;;;
82310;SPS30;72015;51.330;12.316;2023-08-06T00:12:59;8.10;;7.17;;;;;;;
82310;SPS30;72015;51.330;12.316;2023-08-06T00:16:59;8.10;;7.17;;;;;;;
82310;SPS30;72015;51.330;12.316;2023-08-06T00:20:59;8.57;;8.06;;;;;;;
82310;SPS30;72015;51.330;12.316;2023-08-06T00:24:59;8.57;;8.06;;;;;;;
82310;SPS30;72015;51.330;12.316;2023-08-06T00:28:59;8.57;;8.06;;;;;;;
82310;SPS30;72015;51.330;12.316;2023-08-06T00:32:59;6.41;;6.41;;;;;;;
82310;SPS30;72015;51.330;12.316;2023-08-06T00:36:59;6.41;;6.41;;;;;;;
82310;SPS30;72015;51.330;12.316;2023-08-06T00:40:59;6.77;;6.30;;;;;;;
82310;SPS30;72015;51.330;12.316;2023-08-06T00:44:59;6.77;;6.30;;;;;;;
82310;SPS30;72015;51.330;12.316;2023-08-06T00:48:59;6.77;;6.30;;;;;;;
82310;SPS30;72015;51.330;12.316;2023-08-06T00:52:59;7.89;;7.17;;;;;;;
82310;SPS30;72015;51.330;12.316;2023-08-06T00:56:59;7.89;;7.17;;;;;;;
82310;SPS30;72015;51.330;12.316;2023-08-06T01:00:59;6.51;;6.51;;;;;;;
82310;SPS30;72015;51.330;12.316;2023-08-06T01:04:59;6.51;;6.51;;;;;;;
82310;SPS30;72015;51.330;12.316;2023-08-06T01:09:01;6.51;;6.51;;;;;;;
82310;SPS30;72015;51.330;12.316;2023-08-06T01:16:59;6.25;;6.25;;;;;;;
82310;SPS30;72015;51.330;12.316;2023-08-06T01:20:59;6.82;;6.69;;;;;;;
82310;SPS30;72015;51.330;12.316;2023-08-06T01:24:59;6.82;;6.69;;;;;;;
82310;SPS30;72015;51.330;12.316;2023-08-06T01:28:59;6.82;;6.69;;;;;;;
82310;SPS30;72015;51.330;12.316;2023-08-06T01:33:00;8.21;;7.65;;;;;;;
82310;SPS30;72015;51.330;12.316;2023-08-06T01:36:59;8.21;;7.65;;;;;;;
82310;SPS30;72015;51.330;12.316;2023-08-06T01:40:59;41.85;;41.85;;;;;;;
82310;SPS30;72015;51.330;12.316;2023-08-06T01:44:59;41.85;;41.85;;;;;;;
82310;SPS30;72015;51.330;12.316;2023-08-06T01:48:59;41.85;;41.85;;;;;;;
82310;SPS30;72015;51.330;12.316;2023-08-06T01:52:59;7.48;;7.48;;;;;;;
82310;SPS30;72015;51.330;12.316;2023-08-06T01:56:59;7.48;;7.48;;;;;;;
82310;SPS30;72015;51.330;12.316;2023-08-06T02:00:59;7.08;;7.08;;;;;;;
82310;SPS30;72015;51.330;12.316;2023-08-06T02:04:59;7.08;;7.08;;;;;;;
82310;SPS30;72015;51.330;12.316;2023-08-06T02:08:59;7.08;;7.08;;;;;;;
82310;SPS30;72015;51.330;12.316;2023-08-06T02:12:59;7.28;;7.28;;;;;;;
82310;SPS30;72015;51.330;12.316;2023-08-06T02:16:59;7.28;;7.28;;;;;;;
82310;SPS30;72015;51.330;12.316;2023-08-06T02:20:59;7.52;;7.52;;;;;;;
82310;SPS30;72015;51.330;12.316;2023-08-06T02:24:59;7.52;;7.52;;;;;;;
82310;SPS30;72015;51.330;12.316;2023-08-06T02:28:59;7.52;;7.52;;;;;;;
82310;SPS30;72015;51.330;12.316;2023-08-06T02:32:59;6.65;;6.65;;;;;;;
82310;SPS30;72015;51.330;12.316;2023-08-06T02:36:59;6.65;;6.65;;;;;;;
82310;SPS30;72015;51.330;12.316;2023-08-06T02:40:59;6.99;;6.99;;;;;;;
82310;SPS30;72015;51.330;12.316;2023-08-06T02:44:59;6.99;;6.99;;;;;;;
82310;SPS30;72015;51.330;12.316;2023-08-06T02:48:59;6.99;;6.99;;;;;;;
82310;SPS30;72015;51.330;12.316;2023-08-06T02:52:59;8.48;;8.01;;;;;;;
82310;SPS30;72015;51.330;12.316;2023-08-06T02:56:59;8.48;;8.01;;;;;;;
82310;SPS30;72015;51.330;12.316;2023-08-06T03:01:03;7.42;;7.42;;;;;;;
82310;SPS30;72015;51.330;12.316;2023-08-06T03:04:59;7.42;;7.42;;;;;;;
82310;SPS30;72015;51.330;12.316;2023-08-06T03:08:59;7.42;;7.42;;;;;;;
82310;SPS30;72015;51.330;12.316;2023-08-06T03:12:59;41.82;;40.76;;;;;;;
82310;SPS30;72015;51.330;12.316;2023-08-06T03:16:59;41.82;;40.76;;;;;;;
82310;SPS30;72015;51.330;12.316;2023-08-06T03:20:59;8.04;;8.04;;;;;;;
82310;SPS30;72015;51.330;12.316;2023-08-06T03:24:59;8.04;;8.04;;;;;;;
82310;SPS30;72015;51.330;12.316;2023-08-06T03:28:59;8.04;;8.04;;;;;;;
82310;SPS30;72015;51.330;12.316;2023-08-06T03:32:59;9.35;;9.35;;;;;;;
82310;SPS30;72015;51.330;12.316;2023-08-06T03:36:59;9.35;;9.35;;;;;;;
82310;SPS30;72015;51.330;12.316;2023-08-06T03:40:59;7.48;;7.48;;;;;;;
82310;SPS30;72015;51.330;12.316;2023-08-06T03:44:59;7.48;;7.48;;;;;;;
82310;SPS30;72015;51.330;12.316;2023-08-06T03:49:02;7.48;;7.48;;;;;;;
82310;SPS30;72015;51.330;12.316;2023-08-06T03:52:59;9.03;;9.03;;;;;;;
82310;SPS30;72015;51.330;12.316;2023-08-06T03:56:59;9.03;;9.03;;;;;;;
82310;SPS30;72015;51.330;12.316;2023-08-06T04:00:59;9.27;;9.27;;;;;;;
82310;SPS30;72015;51.330;12.316;2023-08-06T04:05:00;9.27;;9.27;;;;;;;
82310;SPS30;72015;51.330;12.316;2023-08-06T04:08:59;9.27;;9.27;;;;;;;
82310;SPS30;72015;51.330;12.316;2023-08-06T04:12:59;9.77;;9.77;;;;;;;
82310;SPS30;72015;51.330;12.316;2023-08-06T04:16:59;9.77;;9.77;;;;;;;
82310;SPS30;72015;51.330;12.316;2023-08-06T04:20:59;8.17;;8.17;;;;;;;
82310;SPS30;72015;51.330;12.316;2023-08-06T04:24:59;8.17;;8.17;;;;;;;
82310;SPS30;72015;51.330;12.316;2023-08-06T04:28:59;8.17;;8.17;;;;;;;
82310;SPS30;72015;51.330;12.316;2023-08-06T04:32:59;8.30;;7.85;;;;;;;
82310;SPS30;72015;51.330;12.316;2023-08-06T04:36:59;8.30;;7.85;;;;;;;
82310;SPS30;72015;51.330;12.316;2023-08-06T04:40:59;5.34;;5.34;;;;;;;
82310;SPS30;72015;51.330;12.316;2023-08-06T04:45:00;5.34;;5.34;;;;;;;
82310;SPS30;72015;51.330;12.316;2023-08-06T04:48:59;5.34;;5.34;;;;;;;
82310;SPS30;72015;51.330;12.316;2023-08-06T04:52:59;3.75;;3.75;;;;;;;
82310;SPS30;72015;51.330;12.316;2023-08-06T04:56:59;3.75;;3.75;;;;;;;
82310;SPS30;72015;51.330;12.316;2023-08-06T05:00:59;4.37;;4.37;;;;;;;
82310;SPS30;72015;51.330;12.316;2023-08-06T05:04:59;4.37;;4.37;;;;;;;
82310;SPS30;72015;51.330;12.316;2023-08-06T05:08:59;4.37;;4.37;;;;;;;
82310;SPS30;72015;51.330;12.316;2023-08-06T05:12:59;3.72;;3.72;;;;;;;
82310;SPS30;72015;51.330;12.316;2023-08-06T05:16:59;3.72;;3.72;;;;;;;
82310;SPS30;72015;51.330;12.316;2023-08-06T05:20:59;4.14;;4.14;;;;;;;
82310;SPS30;72015;51.330;12.316;2023-08-06T05:24:59;4.14;;4.14;;;;;;;
82310;SPS30;72015;51.330;12.316;2023-08-06T05:29:00;4.14;;4.14;;;;;;;
82310;SPS30;72015;51.330;12.316;2023-08-06T05:32:59;3.53;;3.53;;;;;;;
82310;SPS30;72015;51.330;12.316;2023-08-06T05:36:59;3.53;;3.53;;;;;;;
82310;SPS30;72015;51.330;12.316;2023-08-06T05:40:59;3.81;;3.60;;;;;;;
82310;SPS30;72015;51.330;12.316;2023-08-06T05:44:59;3.81;;3.60;;;;;;;
82310;SPS30;72015;51.330;12.316;2023-08-06T05:48:59;3.81;;3.60;;;;;;;
82310;SPS30;72015;51.330;12.316;2023-08-06T05:52:59;3.46;;3.37;;;;;;;
82310;SPS30;72015;51.330;12.316;2023-08-06T05:56:59;3.46;;3.37;;;;;;;
82310;SPS30;72015;51.330;12.316;2023-08-06T06:00:59;2.97;;2.97;;;;;;;
82310;SPS30;72015;51.330;12.316;2023-08-06T06:04:59;2.97;;2.97;;;;;;;
82310;SPS30;72015;51.330;12.316;2023-08-06T06:08:59;2.97;;2.97;;;;;;;
82310;SPS30;72015;51.330;12.316;2023-08-06T06:12:59;3.93;;3.63;;;;;;;
82310;SPS30;72015;51.330;12.316;2023-08-06T06:16:59;3.93;;3.63;;;;;;;
82310;SPS30;72015;51.330;12.316;2023-08-06T06:20:59;2.67;;2.67;;;;;;;
82310;SPS30;72015;51.330;12.316;2023-08-06T06:24:59;2.67;;2.67;;;;;;;
82310;SPS30;72015;51.330;12.316;2023-08-06T06:28:59;2.67;;2.67;;;;;;;
82310;SPS30;72015;51.330;12.316;2023-08-06T06:32:59;2.35;;2.35;;;;;;;
82310;SPS30;72015;51.330;12.316;2023-08-06T06:36:59;2.35;;2.35;;;;;;;
82310;SPS30;72015;51.330;12.316;2023-08-06T06:40:59;3.24;;3.24;;;;;;;
82310;SPS30;72015;51.330;12.316;2023-08-06T06:44:59;3.24;;3.24;;;;;;;
82310;SPS30;72015;51.330;12.316;2023-08-06T06:48:59;3.24;;3.24;;;;;;;
82310;SPS30;72015;51.330;12.316;2023-08-06T06:52:59;3.36;;3.36;;;;;;;
82310;SPS30;72015;51.330;12.316;2023-08-06T06:56:59;3.36;;3.36;;;;;;;
82310;SPS30;72015;51.330;12.316;2023-08-06T07:00:59;3.66;;3.53;;;;;;;
82310;SPS30;72015;51.330;12.316;2023-08-06T07:04:59;3.66;;3.53;;;;;;;
82310;SPS30;72015;51.330;12.316;2023-08-06T07:08:59;3.66;;3.53;;;;;;;
82310;SPS30;72015;51.330;12.316;2023-08-06T07:12:59;4.07;;4.07;;;;;;;
82310;SPS30;72015;51.330;12.316;2023-08-06T07:16:59;4.07;;4.07;;;;;;;
82310;SPS30;72015;51.330;12.316;2023-08-06T07:20:59;3.80;;3.37;;;;;;;
82310;SPS30;72015;51.330;12.316;2023-08-06T07:24:59;3.80;;3.37;;;;;;;
82310;SPS30;72015;51.330;12.316;2023-08-06T07:28:59;3.80;;3.37;;;;;;;
82310;SPS30;72015;51.330;12.316;2023-08-06T07:32:59;11.02;;10.02;;;;;;;
82310;SPS30;72015;51.330;12.316;2023-08-06T07:36:59;11.02;;10.02;;;;;;;
82310;SPS30;72015;51.330;12.316;2023-08-06T07:41:01;3.74;;3.53;;;;;;;
82310;SPS30;72015;51.330;12.316;2023-08-06T07:44:59;3.74;;3.53;;;;;;;
82310;SPS30;72015;51.330;12.316;2023-08-06T07:48:59;3.74;;3.53;;;;;;;
82310;SPS30;72015;51.330;12.316;2023-08-06T07:52:59;3.37;;3.20;;;;;;;
82310;SPS30;72015;51.330;12.316;2023-08-06T07:56:59;3.37;;3.20;;;;;;;
82310;SPS30;72015;51.330;12.316;2023-08-06T08:00:59;2.85;;2.85;;;;;;;
82310;SPS30;72015;51.330;12.316;2023-08-06T08:04:59;2.85;;2.85;;;;;;;
82310;SPS30;72015;51.330;12.316;2023-08-06T08:08:59;2.85;;2.85;;;;;;;
82310;SPS30;72015;51.330;12.316;2023-08-06T08:13:02;3.79;;3.79;;;;;;;
82310;SPS30;72015;51.330;12.316;2023-08-06T08:16:59;3.79;;3.79;;;;;;;
82310;SPS30;72015;51.330;12.316;2023-08-06T08:20:59;3.18;;3.18;;;;;;;
82310;SPS30;72015;51.330;12.316;2023-08-06T08:24:59;3.18;;3.18;;;;;;;
82310;SPS30;72015;51.330;12.316;2023-08-06T08:29:00;3.18;;3.18;;;;;;;
82310;SPS30;72015;51.330;12.316;2023-08-06T08:33:00;3.34;;3.34;;;;;;;
82310;SPS30;72015;51.330;12.316;2023-08-06T08:36:59;3.34;;3.34;;;;;;;
82310;SPS30;72015;51.330;12.316;2023-08-06T08:40:59;4.28;;3.76;;;;;;;
82310;SPS30;72015;51.330;12.316;2023-08-06T08:44:59;4.28;;3.76;;;;;;;
82310;SPS30;72015;51.330;12.316;2023-08-06T08:48:59;4.28;;3.76;;;;;;;
82310;SPS30;72015;51.330;12.316;2023-08-06T08:52:59;5.25;;4.27;;;;;;;
82310;SPS30;72015;51.330;12.316;2023-08-06T08:57:00;5.25;;4.27;;;;;;;
82310;SPS30;72015;51.330;12.316;2023-08-06T09:01:05;3.55;;3.32;;;;;;;
82310;SPS30;72015;51.330;12.316;2023-08-06T09:05:00;3.55;;3.32;;;;;;;
82310;SPS30;72015;51.330;12.316;2023-08-06T09:09:09;3.55;;3.32;;;;;;;
82310;SPS30;72015;51.330;12.316;2023-08-06T09:13:00;2.99;;2.90;;;;;;;
82310;SPS30;72015;51.330;12.316;2023-08-06T09:17:00;2.99;;2.90;;;;;;;
82310;SPS30;72015;51.330;12.316;2023-08-06T09:20:59;3.62;;3.62;;;;;;;
82310;SPS30;72015;51.330;12.316;2023-08-06T09:25:00;3.62;;3.62;;;;;;;
82310;SPS30;72015;51.330;12.316;2023-08-06T09:29:00;3.62;;3.62;;;;;;;
82310;SPS30;72015;51.330;12.316;2023-08-06T09:33:00;3.03;;3.03;;;;;;;
82310;SPS30;72015;51.330;12.316;2023-08-06T09:37:00;3.03;;3.03;;;;;;;
82310;SPS30;72015;51.330;12.316;2023-08-06T09:41:00;4.28;;4.00;;;;;;;
82310;SPS30;72015;51.330;12.316;2023-08-06T09:45:05;4.28;;4.00;;;;;;;
82310;SPS30;72015;51.330;12.316;2023-08-06T09:49:00;4.28;;4.00;;;;;;;
82310;SPS30;72015;51.330;12.316;2023-08-06T09:53:00;3.91;;3.91;;;;;;;
82310;SPS30;72015;51.330;12.316;2023-08-06T09:57:00;3.91;;3.91;;;;;;;
82310;SPS30;72015;51.330;12.316;2023-08-06T10:01:00;3.71;;3.71;;;;;;;
82310;SPS30;72015;51.330;12.316;2023-08-06T10:05:00;3.71;;3.71;;;;;;;
82310;SPS30;72015;51.330;12.316;2023-08-06T10:09:00;3.71;;3.71;;;;;;;
82310;SPS30;72015;51.330;12.316;2023-08-06T10:13:00;3.61;;3.61;;;;;;;
82310;SPS30;72015;51.330;12.316;2023-08-06T10:17:00;3.61;;3.61;;;;;;;
82310;SPS30;72015;51.330;12.316;2023-08-06T10:21:00;3.53;;3.53;;;;;;;
82310;SPS30;72015;51.330;12.316;2023-08-06T10:25:01;3.53;;3.53;;;;;;;
82310;SPS30;72015;51.330;12.316;2023-08-06T10:29:00;3.53;;3.53;;;;;;;
82310;SPS30;72015;51.330;12.316;2023-08-06T10:33:03;4.53;;4.16;;;;;;;
82310;SPS30;72015;51.330;12.316;2023-08-06T10:37:00;4.53;;4.16;;;;;;;
82310;SPS30;72015;51.330;12.316;2023-08-06T10:41:03;3.27;;3.27;;;;;;;
82310;SPS30;72015;51.330;12.316;2023-08-06T10:49:00;3.27;;3.27;;;;;;;
82310;SPS30;72015;51.330;12.316;2023-08-06T10:53:03;3.99;;3.99;;;;;;;
82310;SPS30;72015;51.330;12.316;2023-08-06T10:57:00;3.99;;3.99;;;;;;;
82310;SPS30;72015;51.330;12.316;2023-08-06T11:01:00;7.35;;6.16;;;;;;;
82310;SPS30;72015;51.330;12.316;2023-08-06T11:05:04;7.35;;6.16;;;;;;;
82310;SPS30;72015;51.330;12.316;2023-08-06T11:09:01;7.35;;6.16;;;;;;;
82310;SPS30;72015;51.330;12.316;2023-08-06T11:13:03;4.32;;4.32;;;;;;;
82310;SPS30;72015;51.330;12.316;2023-08-06T11:18:06;0.00;;0.00;;;;;;;
82310;SPS30;72015;51.330;12.316;2023-08-06T11:22:35;4.44;;4.44;;;;;;;
82310;SPS30;72015;51.330;12.316;2023-08-06T11:27:02;5.38;;5.38;;;;;;;
82310;SPS30;72015;51.330;12.316;2023-08-06T11:31:30;5.38;;5.38;;;;;;;
82310;SPS30;72015;51.330;12.316;2023-08-06T11:35:59;5.38;;5.38;;;;;;;
82310;SPS30;72015;51.330;12.316;2023-08-06T11:40:26;3.10;;3.10;;;;;;;
82310;SPS30;72015;51.330;12.316;2023-08-06T11:44:56;3.10;;3.10;;;;;;;
82310;SPS30;72015;51.330;12.316;2023-08-06T11:53:51;2.68;;2.68;;;;;;;
82310;SPS30;72015;51.330;12.316;2023-08-06T11:58:18;2.96;;2.96;;;;;;;
82310;SPS30;72015;51.330;12.316;2023-08-06T12:02:46;2.96;;2.96;;;;;;;
82310;SPS30;72015;51.330;12.316;2023-08-06T12:07:15;3.41;;3.04;;;;;;;
82310;SPS30;72015;51.330;12.316;2023-08-06T12:11:42;3.41;;3.04;;;;;;;
82310;SPS30;72015;51.330;12.316;2023-08-06T12:16:10;3.41;;3.04;;;;;;;
82310;SPS30;72015;51.330;12.316;2023-08-06T12:20:38;2.51;;2.51;;;;;;;
82310;SPS30;72015;51.330;12.316;2023-08-06T12:25:10;2.51;;2.51;;;;;;;
82310;SPS30;72015;51.330;12.316;2023-08-06T12:29:34;2.66;;2.66;;;;;;;
82310;SPS30;72015;51.330;12.316;2023-08-06T12:34:02;2.66;;2.66;;;;;;;
82310;SPS30;72015;51.330;12.316;2023-08-06T12:38:30;3.76;;3.49;;;;;;;
82310;SPS30;72015;51.330;12.316;2023-08-06T12:42:58;3.76;;3.49;;;;;;;
82310;SPS30;72015;51.330;12.316;2023-08-06T12:47:26;3.57;;3.20;;;;;;;
82310;SPS30;72015;51.330;12.316;2023-08-06T12:51:55;3.57;;3.20;;;;;;;
82310;SPS30;72015;51.330;12.316;2023-08-06T12:56:22;3.57;;3.20;;;;;;;
82310;SPS30;72015;51.330;12.316;2023-08-06T13:00:50;9.64;;8.70;;;;;;;
82310;SPS30;72015;51.330;12.316;2023-08-06T13:05:18;9.64;;8.70;;;;;;;
82310;SPS30;72015;51.330;12.316;2023-08-06T13:09:46;3.69;;3.45;;;;;;;
82310;SPS30;72015;51.330;12.316;2023-08-06T13:14:14;3.69;;3.45;;;;;;;
82310;SPS30;72015;51.330;12.316;2023-08-06T13:18:42;3.01;;3.01;;;;;;;
82310;SPS30;72015;51.330;12.316;2023-08-06T13:23:10;3.01;;3.01;;;;;;;
82310;SPS30;72015;51.330;12.316;2023-08-06T13:27:38;2.74;;2.74;;;;;;;
82310;SPS30;72015;51.330;12.316;2023-08-06T13:32:06;2.74;;2.74;;;;;;;
82310;SPS30;72015;51.330;12.316;2023-08-06T13:36:34;3.22;;2.99;;;;;;;
82310;SPS30;72015;51.330;12.316;2023-08-06T13:41:02;3.22;;2.99;;;;;;;
82310;SPS30;72015;51.330;12.316;2023-08-06T13:45:30;3.22;;2.99;;;;;;;
82310;SPS30;72015;51.330;12.316;2023-08-06T13:49:58;3.03;;3.03;;;;;;;
82310;SPS30;72015;51.330;12.316;2023-08-06T13:54:26;3.03;;3.03;;;;;;;
82310;SPS30;72015;51.330;12.316;2023-08-06T13:58:54;2.67;;2.48;;;;;;;
82310;SPS30;72015;51.330;12.316;2023-08-06T14:03:22;2.67;;2.48;;;;;;;
82310;SPS30;72015;51.330;12.316;2023-08-06T14:07:50;2.80;;2.45;;;;;;;
82310;SPS30;72015;51.330;12.316;2023-08-06T14:12:18;2.80;;2.45;;;;;;;
82310;SPS30;72015;51.330;12.316;2023-08-06T14:16:46;17.80;;16.03;;;;;;;
82310;SPS30;72015;51.330;12.316;2023-08-06T14:21:14;17.80;;16.03;;;;;;;
82310;SPS30;72015;51.330;12.316;2023-08-06T14:25:42;17.80;;16.03;;;;;;;
82310;SPS30;72015;51.330;12.316;2023-08-06T14:30:11;2.86;;2.86;;;;;;;
82310;SPS30;72015;51.330;12.316;2023-08-06T14:34:38;2.86;;2.86;;;;;;;
82310;SPS30;72015;51.330;12.316;2023-08-06T14:39:06;4.90;;3.90;;;;;;;
82310;SPS30;72015;51.330;12.316;2023-08-06T14:43:34;4.90;;3.90;;;;;;;
82310;SPS30;72015;51.330;12.316;2023-08-06T14:48:02;2.15;;2.15;;;;;;;
82310;SPS30;72015;51.330;12.316;2023-08-06T14:52:30;2.15;;2.15;;;;;;;
82310;SPS30;72015;51.330;12.316;2023-08-06T14:56:58;2.14;;1.91;;;;;;;
82310;SPS30;72015;51.330;12.316;2023-08-06T15:01:26;2.14;;1.91;;;;;;;
82310;SPS30;72015;51.330;12.316;2023-08-06T15:05:54;2.14;;1.91;;;;;;;
82310;SPS30;72015;51.330;12.316;2023-08-06T15:10:22;1.79;;1.79;;;;;;;
82310;SPS30;72015;51.330;12.316;2023-08-06T15:14:50;1.79;;1.79;;;;;;;
82310;SPS30;72015;51.330;12.316;2023-08-06T15:19:18;1.69;;1.69;;;;;;;
82310;SPS30;72015;51.330;12.316;2023-08-06T15:23:46;1.69;;1.69;;;;;;;
82310;SPS30;72015;51.330;12.316;2023-08-06T15:28:15;3.08;;2.48;;;;;;;
82310;SPS30;72015;51.330;12.316;2023-08-06T15:32:42;3.08;;2.48;;;;;;;
82310;SPS30;72015;51.330;12.316;2023-08-06T15:37:10;1.90;;1.90;;;;;;;
82310;SPS30;72015;51.330;12.316;2023-08-06T15:41:38;1.90;;1.90;;;;;;;
82310;SPS30;72015;51.330;12.316;2023-08-06T15:46:06;1.90;;1.90;;;;;;;
82310;SPS30;72015;51.330;12.316;2023-08-06T15:50:36;2.90;;2.56;;;;;;;
82310;SPS30;72015;51.330;12.316;2023-08-06T15:55:03;2.90;;2.56;;;;;;;
82310;SPS30;72015;51.330;12.316;2023-08-06T15:59:31;2.65;;2.65;;;;;;;
82310;SPS30;72015;51.330;12.316;2023-08-06T16:03:58;2.65;;2.65;;;;;;;
82310;SPS30;72015;51.330;12.316;2023-08-06T16:08:27;5.57;;4.58;;;;;;;
82310;SPS30;72015;51.330;12.316;2023-08-06T16:12:54;5.57;;4.58;;;;;;;
82310;SPS30;72015;51.330;12.316;2023-08-06T16:17:22;5.82;;5.32;;;;;;;
82310;SPS30;72015;51.330;12.316;2023-08-06T16:21:50;5.82;;5.32;;;;;;;
82310;SPS30;72015;51.330;12.316;2023-08-06T16:26:18;5.82;;5.32;;;;;;;
82310;SPS30;72015;51.330;12.316;2023-08-06T16:30:46;5.83;;5.83;;;;;;;
82310;SPS30;72015;51.330;12.316;2023-08-06T16:35:14;5.83;;5.83;;;;;;;
82310;SPS30;72015;51.330;12.316;2023-08-06T16:39:42;4.38;;4.38;;;;;;;
82310;SPS30;72015;51.330;12.316;2023-08-06T16:44:10;4.38;;4.38;;;;;;;
82310;SPS30;72015;51.330;12.316;2023-08-06T16:48:38;2.23;;2.23;;;;;;;
82310;SPS30;72015;51.330;12.316;2023-08-06T16:53:07;2.23;;2.23;;;;;;;
82310;SPS30;72015;51.330;12.316;2023-08-06T16:57:34;2.82;;2.48;;;;;;;
82310;SPS30;72015;51.330;12.316;2023-08-06T17:02:03;2.82;;2.48;;;;;;;
82310;SPS30;72015;51.330;12.316;2023-08-06T17:06:30;2.82;;2.48;;;;;;;
82310;SPS30;72015;51.330;12.316;2023-08-06T17:10:58;5.33;;5.04;;;;;;;
82310;SPS30;72015;51.330;12.316;2023-08-06T17:15:26;5.33;;5.04;;;;;;;
82310;SPS30;72015;51.330;12.316;2023-08-06T17:19:54;3.84;;3.30;;;;;;;
82310;SPS30;72015;51.330;12.316;2023-08-06T17:24:22;3.84;;3.30;;;;;;;
82310;SPS30;72015;51.330;12.316;2023-08-06T17:28:50;3.76;;3.63;;;;;;;
82310;SPS30;72015;51.330;12.316;2023-08-06T17:33:18;3.76;;3.63;;;;;;;
82310;SPS30;72015;51.330;12.316;2023-08-06T17:37:46;3.67;;3.67;;;;;;;
82310;SPS30;72015;51.330;12.316;2023-08-06T17:42:14;3.67;;3.67;;;;;;;
82310;SPS30;72015;51.330;12.316;2023-08-06T17:46:42;4.53;;4.16;;;;;;;
82310;SPS30;72015;51.330;12.316;2023-08-06T17:51:10;4.53;;4.16;;;;;;;
82310;SPS30;72015;51.330;12.316;2023-08-06T17:55:38;4.53;;4.16;;;;;;;
82310;SPS30;72015;51.330;12.316;2023-08-06T18:00:07;5.25;;4.89;;;;;;;
82310;SPS30;72015;51.330;12.316;2023-08-06T18:04:34;5.25;;4.89;;;;;;;
82310;SPS30;72015;51.330;12.316;2023-08-06T18:09:02;3.33;;3.18;;;;;;;
82310;SPS30;72015;51.330;12.316;2023-08-06T18:13:30;3.33;;3.18;;;;;;;
82310;SPS30;72015;51.330;12.316;2023-08-06T18:17:58;3.57;;3.14;;;;;;;
82310;SPS30;72015;51.330;12.316;2023-08-06T18:22:26;3.57;;3.14;;;;;;;
82310;SPS30;72015;51.330;12.316;2023-08-06T18:26:54;2.26;;2.20;;;;;;;
82310;SPS30;72015;51.330;12.316;2023-08-06T18:31:22;2.26;;2.20;;;;;;;
82310;SPS30;72015;51.330;12.316;2023-08-06T18:35:50;2.26;;2.20;;;;;;;
82310;SPS30;72015;51.330;12.316;2023-08-06T18:40:18;2.67;;2.67;;;;;;;
82310;SPS30;72015;51.330;12.316;2023-08-06T18:44:46;2.67;;2.67;;;;;;;
82310;SPS30;72015;51.330;12.316;2023-08-06T18:49:14;3.89;;3.50;;;;;;;
82310;SPS30;72015;51.330;12.316;2023-08-06T18:53:42;3.89;;3.50;;;;;;;
82310;SPS30;72015;51.330;12.316;2023-08-06T18:58:10;4.40;;3.88;;;;;;;
82310;SPS30;72015;51.330;12.316;2023-08-06T19:02:38;4.40;;3.88;;;;;;;
82310;SPS30;72015;51.330;12.316;2023-08-06T19:07:06;4.27;;3.77;;;;;;;
82310;SPS30;72015;51.330;12.316;2023-08-06T19:11:34;4.27;;3.77;;;;;;;
82310;SPS30;72015;51.330;12.316;2023-08-06T19:16:03;4.27;;3.77;;;;;;;
82310;SPS30;72015;51.330;12.316;2023-08-06T21:38:31;0.00;;0.00;;;;;;;
82310;SPS30;72015;51.330;12.316;2023-08-06T21:42:32;5.46;;5.46;;;;;;;
82310;SPS30;72015;51.330;12.316;2023-08-06T21:46:34;5.46;;5.46;;;;;;;
82310;SPS30;72015;51.330;12.316;2023-08-06T21:50:36;13.23;;11.04;;;;;;;
82310;SPS30;72015;51.330;12.316;2023-08-06T21:54:38;13.23;;11.04;;;;;;;
82310;SPS30;72015;51.330;12.316;2023-08-06T21:58:47;7.39;;6.55;;;;;;;
82310;SPS30;72015;51.330;12.316;2023-08-06T22:02:43;7.39;;6.55;;;;;;;
82310;SPS30;72015;51.330;12.316;2023-08-06T22:06:44;7.39;;6.55;;;;;;;
82310;SPS30;72015;51.330;12.316;2023-08-06T22:11:19;0.00;;0.00;;;;;;;
82310;SPS30;72015;51.330;12.316;2023-08-06T22:15:28;3.11;;3.11;;;;;;;
82310;SPS30;72015;51.330;12.316;2023-08-06T22:19:38;3.11;;3.11;;;;;;;
82310;SPS30;72015;51.330;12.316;2023-08-06T22:23:48;2.80;;2.80;;;;;;;
82310;SPS30;72015;51.330;12.316;2023-08-06T22:27:58;2.80;;2.80;;;;;;;
82310;SPS30;72015;51.330;12.316;2023-08-06T22:32:08;4.25;;3.90;;;;;;;
82310;SPS30;72015;51.330;12.316;2023-08-06T22:36:18;4.25;;3.90;;;;;;;
82310;SPS30;72015;51.330;12.316;2023-08-06T22:40:28;3.74;;3.74;;;;;;;
82310;SPS30;72015;51.330;12.316;2023-08-06T22:44:38;3.74;;3.74;;;;;;;
82310;SPS30;72015;51.330;12.316;2023-08-06T22:48:48;3.74;;3.74;;;;;;;
82310;SPS30;72015;51.330;12.316;2023-08-06T22:52:58;4.09;;3.57;;;;;;;
82310;SPS30;72015;51.330;12.316;2023-08-06T22:57:08;4.09;;3.57;;;;;;;
82310;SPS30;72015;51.330;12.316;2023-08-06T23:01:18;4.14;;3.53;;;;;;;
82310;SPS30;72015;51.330;12.316;2023-08-06T23:05:28;4.14;;3.53;;;;;;;
82310;SPS30;72015;51.330;12.316;2023-08-06T23:09:38;4.14;;3.53;;;;;;;
82310;SPS30;72015;51.330;12.316;2023-08-06T23:13:48;3.07;;2.73;;;;;;;
82310;SPS30;72015;51.330;12.316;2023-08-06T23:17:58;3.07;;2.73;;;;;;;
82310;SPS30;72015;51.330;12.316;2023-08-06T23:22:08;3.16;;2.77;;;;;;;
82310;SPS30;72015;51.330;12.316;2023-08-06T23:26:19;3.16;;2.77;;;;;;;
82310;SPS30;72015;51.330;12.316;2023-08-06T23:30:28;1.82;;1.82;;;;;;;
82310;SPS30;72015;51.330;12.316;2023-08-06T23:34:38;1.82;;1.82;;;;;;;
82310;SPS30;72015;51.330;12.316;2023-08-06T23:38:48;1.82;;1.82;;;;;;;
82310;SPS30;72015;51.330;12.316;2023-08-06T23:42:58;2.56;;2.56;;;;;;;
82310;SPS30;72015;51.330;12.316;2023-08-06T23:47:09;2.56;;2.56;;;;;;;
82310;SPS30;72015;51.330;12.316;2023-08-06T23:51:19;2.55;;2.55;;;;;;;
82310;SPS30;72015;51.330;12.316;2023-08-06T23:55:28;2.55;;2.55;;;;;;;
82310;SPS30;72015;51.330;12.316;2023-08-06T23:59:39;2.55;;2.55;;;;;;;
